Time;durP1;ratioP1;P1;durP2;ratioP2;P2;SDS_P1;SDS_P2;PMS_P1;PMS_P2;Temp;Humidity;BMP_temperature;BMP_pressure;BME280_temperature;BME280_humidity;BME280_pressure;Samples;Min_cycle;Max_cycle;Signal;HPM_P1;HPM_P2
2021/10/11 00:00:12;;;;;;;15.80;9.05;;;;;;;;;;5014360;28;20482;-81
2021/10/11 00:02:39;;;;;;;18.45;8.40;;;;;;;;;;5014751;28;20046;-83
2021/10/11 00:05:06;;;;;;;16.80;9.07;;;;;;;;;;5014279;28;20042;-82
2021/10/11 00:07:32;;;;;;;15.27;8.63;;;;;;;;;;5013145;28;20727;-82
2021/10/11 00:09:59;;;;;;;14.10;8.57;;;;;;;;;;5013965;28;20052;-82
2021/10/11 00:12:25;;;;;;;15.57;7.85;;;;;;;;;;5014155;28;20042;-82
2021/10/11 00:14:54;;;;;;;15.82;7.57;;;;;;;;;;5017150;28;20054;-82
2021/10/11 00:17:20;;;;;;;11.40;6.80;;;;;;;;;;5017948;28;20050;-82
2021/10/11 00:19:50;;;;;;;13.25;7.32;;;;;;;;;;5018098;28;20045;-82
2021/10/11 00:22:17;;;;;;;14.75;7.88;;;;;;;;;;5018361;28;20406;-82
2021/10/11 00:24:43;;;;;;;12.48;6.97;;;;;;;;;;5018145;28;20246;-82
2021/10/11 00:27:11;;;;;;;14.48;8.65;;;;;;;;;;5018132;28;20049;-83
2021/10/11 00:29:41;;;;;;;11.40;7.47;;;;;;;;;;5016845;28;20447;-82
2021/10/11 00:32:08;;;;;;;14.68;7.90;;;;;;;;;;5017128;28;20101;-82
2021/10/11 00:34:35;;;;;;;13.80;8.60;;;;;;;;;;5018226;28;20037;-82
2021/10/11 00:37:02;;;;;;;14.57;7.60;;;;;;;;;;5000681;28;20038;-82
2021/10/11 00:39:29;;;;;;;12.45;6.82;;;;;;;;;;5016615;28;20046;-82
2021/10/11 00:41:56;;;;;;;18.63;7.88;;;;;;;;;;5017339;28;20479;-83
2021/10/11 00:44:23;;;;;;;11.82;6.47;;;;;;;;;;5018688;28;20041;-82
2021/10/11 00:46:49;;;;;;;14.15;7.30;;;;;;;;;;5017720;28;20042;-82
2021/10/11 00:49:18;;;;;;;13.65;8.02;;;;;;;;;;5018172;28;20045;-82
2021/10/11 00:51:49;;;;;;;13.60;6.80;;;;;;;;;;5013223;28;20046;-82
2021/10/11 00:54:16;;;;;;;15.65;7.63;;;;;;;;;;4997887;28;20046;-82
2021/10/11 00:56:42;;;;;;;11.45;6.93;;;;;;;;;;4997259;28;20050;-82
2021/10/11 00:59:09;;;;;;;16.35;7.97;;;;;;;;;;5016220;28;20053;-82
2021/10/11 01:01:36;;;;;;;16.17;8.18;;;;;;;;;;5016004;28;20053;-82
2021/10/11 01:04:05;;;;;;;14.95;7.70;;;;;;;;;;5016907;28;20053;-83
2021/10/11 01:06:34;;;;;;;15.15;7.22;;;;;;;;;;5007194;28;20038;-82
2021/10/11 01:09:01;;;;;;;12.27;7.45;;;;;;;;;;5015783;28;20054;-82
2021/10/11 01:11:27;;;;;;;12.40;7.10;;;;;;;;;;5016280;28;20042;-82
2021/10/11 01:13:54;;;;;;;12.45;6.80;;;;;;;;;;5017509;28;20046;-82
2021/10/11 01:16:20;;;;;;;16.75;8.45;;;;;;;;;;5017499;28;20046;-82
2021/10/11 01:18:47;;;;;;;13.90;6.50;;;;;;;;;;5017534;28;20045;-82
2021/10/11 01:21:14;;;;;;;15.43;7.75;;;;;;;;;;5017423;28;20041;-83
2021/10/11 01:23:42;;;;;;;14.02;7.55;;;;;;;;;;5017179;28;20049;-83
2021/10/11 01:26:08;;;;;;;16.25;8.50;;;;;;;;;;5016244;28;20049;-82
2021/10/11 01:28:36;;;;;;;13.68;6.95;;;;;;;;;;5017432;28;20042;-84
2021/10/11 01:31:05;;;;;;;17.50;8.18;;;;;;;;;;5017287;28;20056;-82
2021/10/11 01:33:31;;;;;;;15.52;8.45;;;;;;;;;;5017443;28;20048;-83
2021/10/11 01:35:59;;;;;;;16.08;7.78;;;;;;;;;;5016704;28;20045;-83
2021/10/11 01:38:27;;;;;;;12.60;7.38;;;;;;;;;;5016293;28;20117;-83
2021/10/11 01:40:53;;;;;;;14.75;7.25;;;;;;;;;;5017405;28;20053;-83
2021/10/11 01:43:20;;;;;;;12.82;6.43;;;;;;;;;;4999488;28;20101;-83
2021/10/11 01:45:49;;;;;;;14.95;8.02;;;;;;;;;;5016259;28;20060;-83
2021/10/11 01:48:17;;;;;;;13.63;7.68;;;;;;;;;;5015783;28;20042;-83
2021/10/11 01:50:44;;;;;;;12.70;7.53;;;;;;;;;;4984237;28;20455;-83
2021/10/11 01:53:10;;;;;;;15.80;7.95;;;;;;;;;;5016644;28;20103;-83
2021/10/11 01:55:39;;;;;;;14.15;8.93;;;;;;;;;;5017837;28;20065;-83
2021/10/11 01:58:06;;;;;;;14.32;8.20;;;;;;;;;;5017521;28;20045;-84
2021/10/11 02:00:33;;;;;;;14.45;7.93;;;;;;;;;;5015419;28;20041;-83
2021/10/11 02:03:04;;;;;;;17.65;8.35;;;;;;;;;;5016558;28;20513;-84
2021/10/11 02:05:31;;;;;;;13.82;7.75;;;;;;;;;;5017396;28;20042;-83
2021/10/11 02:07:57;;;;;;;13.25;7.15;;;;;;;;;;5015658;28;20053;-83
2021/10/11 02:10:24;;;;;;;14.73;8.90;;;;;;;;;;5015363;28;20084;-83
2021/10/11 02:12:53;;;;;;;14.43;7.63;;;;;;;;;;5015822;28;20042;-83
2021/10/11 02:15:23;;;;;;;15.00;8.02;;;;;;;;;;5015364;28;20069;-84
2021/10/11 02:17:49;;;;;;;15.27;7.85;;;;;;;;;;5016422;28;20046;-83
2021/10/11 02:20:16;;;;;;;15.40;8.93;;;;;;;;;;4999441;28;20096;-83
2021/10/11 02:22:43;;;;;;;14.55;7.40;;;;;;;;;;5016959;28;20046;-83
2021/10/11 02:25:10;;;;;;;16.95;8.45;;;;;;;;;;5016120;28;20077;-83
2021/10/11 02:27:38;;;;;;;13.20;7.38;;;;;;;;;;5015361;28;20434;-83
2021/10/11 02:30:07;;;;;;;15.50;7.45;;;;;;;;;;4998733;28;20133;-83
2021/10/11 02:32:37;;;;;;;13.73;6.82;;;;;;;;;;5016681;28;20450;-83
2021/10/11 02:35:04;;;;;;;14.73;8.32;;;;;;;;;;5017704;28;20046;-83
2021/10/11 02:37:32;;;;;;;15.07;8.32;;;;;;;;;;5014844;28;20041;-83
2021/10/11 02:39:59;;;;;;;16.85;9.10;;;;;;;;;;5016359;28;20049;-85
2021/10/11 02:42:25;;;;;;;15.25;7.10;;;;;;;;;;5016091;28;20108;-83
2021/10/11 02:44:53;;;;;;;18.08;8.15;;;;;;;;;;5017145;28;20429;-84
2021/10/11 02:47:21;;;;;;;13.02;7.32;;;;;;;;;;5017397;28;20541;-84
2021/10/11 02:49:48;;;;;;;16.70;7.97;;;;;;;;;;5015235;28;20046;-83
2021/10/11 02:52:15;;;;;;;14.90;7.40;;;;;;;;;;5015264;28;20068;-83
2021/10/11 02:54:43;;;;;;;12.80;6.80;;;;;;;;;;4979272;28;20043;-82
2021/10/11 02:57:10;;;;;;;14.40;7.65;;;;;;;;;;4997415;28;20042;-83
2021/10/11 02:59:37;;;;;;;15.07;7.60;;;;;;;;;;5013459;28;20049;-83
2021/10/11 03:02:04;;;;;;;14.60;6.93;;;;;;;;;;5014699;28;20390;-84
2021/10/11 03:04:32;;;;;;;17.15;7.45;;;;;;;;;;4998303;28;20124;-84
2021/10/11 03:07:01;;;;;;;15.07;7.22;;;;;;;;;;5012368;28;20096;-86
2021/10/11 03:09:27;;;;;;;15.38;7.63;;;;;;;;;;5014594;28;20048;-84
2021/10/11 03:11:54;;;;;;;13.82;7.97;;;;;;;;;;5014595;28;20478;-83
2021/10/11 03:14:20;;;;;;;15.05;7.88;;;;;;;;;;5011219;28;20038;-83
2021/10/11 03:16:48;;;;;;;14.02;7.47;;;;;;;;;;5009936;28;20043;-84
2021/10/11 03:19:17;;;;;;;14.23;7.60;;;;;;;;;;5006052;28;20104;-84
2021/10/11 03:21:45;;;;;;;13.95;8.23;;;;;;;;;;5016413;28;20041;-84
2021/10/11 03:24:12;;;;;;;13.05;7.50;;;;;;;;;;5016660;28;20037;-85
2021/10/11 03:26:39;;;;;;;13.13;7.78;;;;;;;;;;5016647;28;20042;-83
2021/10/11 03:29:05;;;;;;;17.45;8.32;;;;;;;;;;5015530;28;20057;-84
2021/10/11 03:31:32;;;;;;;13.35;7.88;;;;;;;;;;5016489;28;20038;-86
2021/10/11 03:33:59;;;;;;;12.88;6.82;;;;;;;;;;5016572;28;20050;-85
2021/10/11 03:36:27;;;;;;;16.02;8.13;;;;;;;;;;5015141;28;20482;-85
2021/10/11 03:38:55;;;;;;;15.45;8.02;;;;;;;;;;5015255;28;20076;-85
2021/10/11 03:41:22;;;;;;;13.23;7.70;;;;;;;;;;5016448;28;20042;-84
2021/10/11 03:43:50;;;;;;;13.88;8.00;;;;;;;;;;5016549;28;20038;-85
2021/10/11 03:46:16;;;;;;;17.67;8.98;;;;;;;;;;5015646;28;20042;-85
2021/10/11 03:48:43;;;;;;;15.02;8.35;;;;;;;;;;4997878;28;20034;-84
2021/10/11 03:51:11;;;;;;;15.77;8.75;;;;;;;;;;5013596;28;20045;-84
2021/10/11 03:53:38;;;;;;;16.83;7.93;;;;;;;;;;5014482;28;20528;-85
2021/10/11 03:56:06;;;;;;;15.40;7.95;;;;;;;;;;5014096;28;20092;-84
2021/10/11 03:58:33;;;;;;;12.90;8.07;;;;;;;;;;5013718;28;20049;-85
2021/10/11 04:00:59;;;;;;;15.57;8.93;;;;;;;;;;5016197;28;20096;-85
2021/10/11 04:03:27;;;;;;;14.95;8.30;;;;;;;;;;5015355;28;20049;-84
2021/10/11 04:05:55;;;;;;;17.02;8.88;;;;;;;;;;5013293;28;20608;-84
2021/10/11 04:08:22;;;;;;;19.30;8.52;;;;;;;;;;5013686;28;20080;-83
2021/10/11 04:10:56;;;;;;;18.52;8.15;;;;;;;;;;5014734;28;20046;-83
2021/10/11 04:13:24;;;;;;;15.68;8.02;;;;;;;;;;5014942;28;20374;-84
2021/10/11 04:15:51;;;;;;;12.05;7.25;;;;;;;;;;5015090;28;20049;-84
2021/10/11 04:18:19;;;;;;;14.35;7.85;;;;;;;;;;5015286;28;20478;-84
2021/10/11 04:20:46;;;;;;;16.23;8.88;;;;;;;;;;5015334;28;20115;-84
2021/10/11 04:23:13;;;;;;;17.58;9.48;;;;;;;;;;5014820;28;20470;-85
2021/10/11 04:25:39;;;;;;;13.65;6.88;;;;;;;;;;5013670;28;20470;-85
2021/10/11 04:28:08;;;;;;;14.77;7.70;;;;;;;;;;5013644;28;20052;-84
2021/10/11 04:30:36;;;;;;;15.00;7.72;;;;;;;;;;5015548;28;20478;-84
2021/10/11 04:33:03;;;;;;;16.30;8.13;;;;;;;;;;5015710;28;20038;-85
2021/10/11 04:35:30;;;;;;;14.73;7.47;;;;;;;;;;5017902;28;20046;-85
2021/10/11 04:37:56;;;;;;;14.50;7.38;;;;;;;;;;5016585;28;20394;-85
2021/10/11 04:40:23;;;;;;;16.40;8.63;;;;;;;;;;5017529;28;20050;-85
2021/10/11 04:42:50;;;;;;;20.33;8.15;;;;;;;;;;5016732;28;20042;-85
2021/10/11 04:45:16;;;;;;;13.35;8.50;;;;;;;;;;5018528;28;20050;-84
2021/10/11 04:47:45;;;;;;;15.63;8.57;;;;;;;;;;5016341;28;20044;-87
2021/10/11 04:50:11;;;;;;;17.60;8.40;;;;;;;;;;5012394;28;20038;-85
2021/10/11 04:52:38;;;;;;;17.00;8.05;;;;;;;;;;5018000;28;20053;-84
2021/10/11 04:55:05;;;;;;;16.42;7.85;;;;;;;;;;5017262;28;20123;-84
2021/10/11 04:57:32;;;;;;;15.32;7.75;;;;;;;;;;5017030;28;20050;-85
2021/10/11 04:59:59;;;;;;;13.68;7.75;;;;;;;;;;5015837;28;20494;-85
2021/10/11 05:02:26;;;;;;;15.00;9.07;;;;;;;;;;5003554;28;20050;-85
2021/10/11 05:04:56;;;;;;;18.33;7.78;;;;;;;;;;5020706;28;20076;-85
2021/10/11 05:07:23;;;;;;;17.63;9.00;;;;;;;;;;5020517;28;20038;-85
2021/10/11 05:09:53;;;;;;;16.50;8.07;;;;;;;;;;5020002;28;20038;-85
2021/10/11 05:12:20;;;;;;;16.73;7.38;;;;;;;;;;5020718;28;20050;-85
2021/10/11 05:14:47;;;;;;;17.92;9.00;;;;;;;;;;5019903;28;20072;-86
2021/10/11 05:17:13;;;;;;;15.60;7.43;;;;;;;;;;5020199;28;20074;-86
2021/10/11 05:19:40;;;;;;;23.92;9.10;;;;;;;;;;5021483;28;20141;-84
2021/10/11 05:22:08;;;;;;;23.23;9.43;;;;;;;;;;5018928;28;20049;-85
2021/10/11 05:24:35;;;;;;;15.68;8.55;;;;;;;;;;5019830;28;20084;-84
2021/10/11 05:27:02;;;;;;;19.85;8.88;;;;;;;;;;5003526;28;20085;-85
2021/10/11 05:29:28;;;;;;;15.77;8.38;;;;;;;;;;5019536;28;20081;-85
2021/10/11 05:31:55;;;;;;;34.22;9.75;;;;;;;;;;5022530;28;20054;-85
2021/10/11 05:34:22;;;;;;;25.50;8.70;;;;;;;;;;5003899;28;20470;-85
2021/10/11 05:36:49;;;;;;;20.75;8.43;;;;;;;;;;5021665;28;20045;-84
2021/10/11 05:39:17;;;;;;;19.48;8.55;;;;;;;;;;5020701;28;20068;-84
2021/10/11 05:41:44;;;;;;;16.25;8.68;;;;;;;;;;5022549;28;20046;-84
2021/10/11 05:44:11;;;;;;;21.95;8.50;;;;;;;;;;5022902;28;20376;-86
2021/10/11 05:46:38;;;;;;;18.42;10.20;;;;;;;;;;5021410;28;20474;-84
2021/10/11 05:49:05;;;;;;;22.23;9.95;;;;;;;;;;5023982;28;20057;-86
2021/10/11 05:51:32;;;;;;;22.23;9.77;;;;;;;;;;5023008;28;20048;-85
2021/10/11 05:53:58;;;;;;;19.30;10.10;;;;;;;;;;5022014;28;20041;-85
2021/10/11 05:56:26;;;;;;;21.55;10.38;;;;;;;;;;5023926;28;20049;-86
2021/10/11 05:58:53;;;;;;;23.10;9.20;;;;;;;;;;5025394;28;20049;-86
2021/10/11 06:01:20;;;;;;;15.88;8.18;;;;;;;;;;5024926;28;20128;-86
2021/10/11 06:03:47;;;;;;;23.55;10.50;;;;;;;;;;5025712;28;20073;-85
2021/10/11 06:06:13;;;;;;;19.35;9.05;;;;;;;;;;5026712;28;20038;-85
2021/10/11 06:08:40;;;;;;;21.13;10.52;;;;;;;;;;5026987;28;20052;-86
2021/10/11 06:11:06;;;;;;;17.15;8.23;;;;;;;;;;5026779;28;20046;-87
2021/10/11 06:13:35;;;;;;;19.10;8.10;;;;;;;;;;5028231;28;20046;-87
2021/10/11 06:16:02;;;;;;;23.30;9.23;;;;;;;;;;5024362;28;20046;-85
2021/10/11 06:18:30;;;;;;;24.88;11.13;;;;;;;;;;5019199;28;20061;-85
2021/10/11 06:20:57;;;;;;;23.75;10.65;;;;;;;;;;5002470;28;20096;-84
2021/10/11 06:23:25;;;;;;;19.20;9.73;;;;;;;;;;5017247;28;20533;-85
2021/10/11 06:25:53;;;;;;;18.15;9.93;;;;;;;;;;5018612;28;20046;-85
2021/10/11 06:28:20;;;;;;;23.42;10.23;;;;;;;;;;5019343;28;20088;-86
2021/10/11 06:30:48;;;;;;;23.80;11.52;;;;;;;;;;5018612;28;20487;-84
2021/10/11 06:33:15;;;;;;;22.35;11.75;;;;;;;;;;5017686;28;20038;-85
2021/10/11 06:35:42;;;;;;;24.30;12.20;;;;;;;;;;5019147;28;20042;-86
2021/10/11 06:38:15;;;;;;;23.88;11.98;;;;;;;;;;5020018;28;20045;-84
2021/10/11 06:40:45;;;;;;;21.90;10.52;;;;;;;;;;5020521;28;20052;-85
2021/10/11 06:43:13;;;;;;;26.10;11.38;;;;;;;;;;5019963;28;20080;-85
2021/10/11 06:45:40;;;;;;;25.33;14.20;;;;;;;;;;5020554;28;20095;-85
2021/10/11 06:48:08;;;;;;;26.58;13.68;;;;;;;;;;5020294;28;20075;-84
2021/10/11 06:50:37;;;;;;;27.15;12.30;;;;;;;;;;5024256;28;20394;-82
2021/10/11 06:53:05;;;;;;;19.67;10.75;;;;;;;;;;5020022;28;20042;-82
2021/10/11 06:55:33;;;;;;;27.10;11.45;;;;;;;;;;5014780;28;20044;-82
2021/10/11 06:58:00;;;;;;;20.95;11.43;;;;;;;;;;5014520;28;20123;-84
2021/10/11 07:00:26;;;;;;;25.45;11.57;;;;;;;;;;5015889;28;20104;-83
2021/10/11 07:02:54;;;;;;;23.13;10.90;;;;;;;;;;5014792;28;20478;-83
2021/10/11 07:05:22;;;;;;;23.35;11.85;;;;;;;;;;5015540;28;20498;-84
2021/10/11 07:07:48;;;;;;;22.50;12.00;;;;;;;;;;5015357;28;20057;-84
2021/10/11 07:10:16;;;;;;;24.55;12.68;;;;;;;;;;5013828;28;20046;-83
2021/10/11 07:12:43;;;;;;;18.65;11.07;;;;;;;;;;5016318;28;20067;-83
2021/10/11 07:15:11;;;;;;;21.13;11.13;;;;;;;;;;5014108;28;20045;-83
2021/10/11 07:17:38;;;;;;;18.85;11.02;;;;;;;;;;4997683;28;20111;-83
2021/10/11 07:20:06;;;;;;;18.98;10.25;;;;;;;;;;5015592;28;20084;-84
2021/10/11 07:22:36;;;;;;;20.95;11.23;;;;;;;;;;5015255;28;20057;-83
2021/10/11 07:25:03;;;;;;;21.63;11.85;;;;;;;;;;5014553;28;20545;-82
2021/10/11 07:27:30;;;;;;;25.80;12.82;;;;;;;;;;5014490;28;20053;-82
2021/10/11 07:29:57;;;;;;;21.50;13.02;;;;;;;;;;4996883;28;20136;-82
2021/10/11 07:32:23;;;;;;;25.77;13.60;;;;;;;;;;5014242;28;20042;-82
2021/10/11 07:34:49;;;;;;;21.55;13.13;;;;;;;;;;5013351;28;20049;-83
2021/10/11 07:37:16;;;;;;;27.40;15.00;;;;;;;;;;5014396;28;20038;-82
2021/10/11 07:39:45;;;;;;;32.28;14.02;;;;;;;;;;5014604;28;20100;-82
2021/10/11 07:42:12;;;;;;;28.00;14.73;;;;;;;;;;5014657;28;20065;-83
2021/10/11 07:44:39;;;;;;;23.30;13.45;;;;;;;;;;5013808;28;20640;-82
2021/10/11 07:47:06;;;;;;;27.30;14.13;;;;;;;;;;5011862;28;20513;-82
2021/10/11 07:49:33;;;;;;;26.98;14.88;;;;;;;;;;5013177;28;20049;-83
2021/10/11 07:51:59;;;;;;;22.40;13.52;;;;;;;;;;5014219;28;20042;-83
2021/10/11 07:54:26;;;;;;;23.60;14.38;;;;;;;;;;5013704;28;20038;-81
2021/10/11 07:56:53;;;;;;;23.92;14.05;;;;;;;;;;5013347;28;20037;-82
2021/10/11 07:59:20;;;;;;;24.38;13.60;;;;;;;;;;5013981;28;20133;-81
2021/10/11 08:01:46;;;;;;;24.75;13.82;;;;;;;;;;5013989;28;20046;-82
2021/10/11 08:04:13;;;;;;;20.92;12.73;;;;;;;;;;5013633;28;20042;-81
2021/10/11 08:06:39;;;;;;;20.23;12.90;;;;;;;;;;5013543;28;20045;-82
2021/10/11 08:09:08;;;;;;;21.83;12.82;;;;;;;;;;5013400;28;20042;-83
2021/10/11 08:11:35;;;;;;;22.95;13.00;;;;;;;;;;5013473;28;20434;-83
2021/10/11 08:14:04;;;;;;;21.52;12.68;;;;;;;;;;4995828;28;20049;-83
2021/10/11 08:16:32;;;;;;;23.02;14.10;;;;;;;;;;5013638;28;20058;-83
2021/10/11 08:18:58;;;;;;;23.83;13.27;;;;;;;;;;5013858;28;20042;-81
2021/10/11 08:21:25;;;;;;;31.15;13.73;;;;;;;;;;5012121;28;20045;-82
2021/10/11 08:23:53;;;;;;;23.60;12.20;;;;;;;;;;5013748;28;20589;-83
2021/10/11 08:26:20;;;;;;;28.10;13.93;;;;;;;;;;5014042;28;20100;-83
2021/10/11 08:28:47;;;;;;;23.73;13.65;;;;;;;;;;5012694;28;20046;-83
2021/10/11 08:31:15;;;;;;;24.75;13.68;;;;;;;;;;5012644;28;20092;-84
2021/10/11 08:33:42;;;;;;;26.55;14.43;;;;;;;;;;5013686;28;20042;-84
2021/10/11 08:36:08;;;;;;;32.40;18.30;;;;;;;;;;5017122;28;20053;-85
2021/10/11 08:38:35;;;;;;;27.25;16.77;;;;;;;;;;5016633;28;20050;-82
2021/10/11 08:41:02;;;;;;;20.98;14.43;;;;;;;;;;5018147;28;20053;-82
2021/10/11 08:43:29;;;;;;;25.20;14.20;;;;;;;;;;5017879;28;20045;-84
2021/10/11 08:45:55;;;;;;;24.95;15.23;;;;;;;;;;5016254;28;20042;-83
2021/10/11 08:48:23;;;;;;;24.35;14.48;;;;;;;;;;5017672;28;20073;-84
2021/10/11 08:50:50;;;;;;;20.63;13.27;;;;;;;;;;5017604;28;20499;-83
2021/10/11 08:53:17;;;;;;;20.95;13.88;;;;;;;;;;4999536;28;20050;-83
2021/10/11 08:55:43;;;;;;;21.63;13.65;;;;;;;;;;5017447;28;20042;-83
2021/10/11 08:58:10;;;;;;;23.35;14.55;;;;;;;;;;5015821;28;20088;-83
2021/10/11 09:00:38;;;;;;;23.92;14.32;;;;;;;;;;5017420;28;20041;-83
2021/10/11 09:03:06;;;;;;;23.38;14.00;;;;;;;;;;5017563;28;20061;-83
2021/10/11 09:05:36;;;;;;;24.90;14.63;;;;;;;;;;5016423;28;20133;-84
2021/10/11 09:08:04;;;;;;;23.50;13.70;;;;;;;;;;5017753;28;20393;-84
2021/10/11 09:10:33;;;;;;;20.73;14.00;;;;;;;;;;5017601;28;20386;-82
2021/10/11 09:13:00;;;;;;;23.75;14.25;;;;;;;;;;5017979;28;20389;-82
2021/10/11 09:15:31;;;;;;;22.65;14.20;;;;;;;;;;5018592;28;20061;-80
2021/10/11 09:18:02;;;;;;;23.67;13.80;;;;;;;;;;5018800;28;20046;-82
2021/10/11 09:20:29;;;;;;;22.80;13.93;;;;;;;;;;5017065;28;20057;-82
2021/10/11 09:23:01;;;;;;;22.25;13.48;;;;;;;;;;5001243;28;20371;-83
2021/10/11 09:25:34;;;;;;;20.35;13.05;;;;;;;;;;5017985;28;20034;-82
2021/10/11 09:28:01;;;;;;;21.13;14.18;;;;;;;;;;5016450;28;20038;-82
2021/10/11 09:30:29;;;;;;;20.98;13.40;;;;;;;;;;4998639;28;20082;-83
2021/10/11 09:33:07;;;;;;;20.92;12.80;;;;;;;;;;4998537;28;20065;-83
2021/10/11 09:35:34;;;;;;;21.77;13.65;;;;;;;;;;4998553;28;20698;-82
2021/10/11 09:38:02;;;;;;;22.15;13.68;;;;;;;;;;5004828;28;20049;-84
2021/10/11 09:40:39;;;;;;;22.25;12.90;;;;;;;;;;5018892;28;20064;-84
2021/10/11 09:43:12;;;;;;;29.67;14.02;;;;;;;;;;5018738;28;20038;-83
2021/10/11 09:45:38;;;;;;;20.23;14.13;;;;;;;;;;5018902;28;20046;-83
2021/10/11 09:48:06;;;;;;;20.90;14.52;;;;;;;;;;5017886;28;20052;-83
2021/10/11 09:50:34;;;;;;;21.83;12.32;;;;;;;;;;5019456;28;20156;-83
2021/10/11 09:53:02;;;;;;;20.92;12.88;;;;;;;;;;5018881;28;20088;-84
2021/10/11 09:55:28;;;;;;;21.25;14.20;;;;;;;;;;5019435;28;20403;-84
2021/10/11 09:57:55;;;;;;;20.92;13.60;;;;;;;;;;5018139;28;20046;-84
2021/10/11 10:00:22;;;;;;;19.65;14.02;;;;;;;;;;5017911;28;20046;-82
2021/10/11 10:02:50;;;;;;;20.90;13.68;;;;;;;;;;5018013;28;20060;-85
2021/10/11 10:05:18;;;;;;;19.30;13.55;;;;;;;;;;5019856;28;20069;-82
2021/10/11 10:07:47;;;;;;;24.20;14.38;;;;;;;;;;5020034;28;20042;-82
2021/10/11 10:10:17;;;;;;;23.67;14.75;;;;;;;;;;5020537;28;20050;-87
2021/10/11 10:12:45;;;;;;;21.15;13.30;;;;;;;;;;5021026;28;20077;-85
2021/10/11 10:15:11;;;;;;;22.00;13.43;;;;;;;;;;5016574;28;20092;-83
2021/10/11 10:17:38;;;;;;;24.25;13.30;;;;;;;;;;5015715;28;20073;-85
2021/10/11 10:20:10;;;;;;;20.90;13.13;;;;;;;;;;5015189;28;20049;-84
2021/10/11 10:22:49;;;;;;;19.88;13.05;;;;;;;;;;5015250;28;20081;-84
2021/10/11 10:25:17;;;;;;;24.08;14.95;;;;;;;;;;5015010;28;20540;-81
2021/10/11 10:27:50;;;;;;;21.70;13.30;;;;;;;;;;5005051;28;20046;-84
2021/10/11 10:30:21;;;;;;;20.35;12.95;;;;;;;;;;5011820;28;20185;-82
2021/10/11 10:32:55;;;;;;;16.85;12.25;;;;;;;;;;5015213;28;20072;-83
2021/10/11 10:35:33;;;;;;;19.50;12.63;;;;;;;;;;5015679;28;20041;-83
2021/10/11 10:38:02;;;;;;;18.35;12.48;;;;;;;;;;5016183;28;20422;-83
2021/10/11 10:40:33;;;;;;;18.02;12.15;;;;;;;;;;5015415;28;20630;-83
2021/10/11 10:43:05;;;;;;;19.55;12.85;;;;;;;;;;5014512;28;20065;-84
2021/10/11 10:45:33;;;;;;;20.02;12.98;;;;;;;;;;5014552;28;20425;-84
2021/10/11 10:48:01;;;;;;;17.15;11.68;;;;;;;;;;5014444;28;20045;-84
2021/10/11 10:50:28;;;;;;;19.20;11.63;;;;;;;;;;5014339;28;20494;-84
2021/10/11 10:52:57;;;;;;;20.05;11.88;;;;;;;;;;5013808;28;20053;-85
2021/10/11 10:55:26;;;;;;;18.13;11.80;;;;;;;;;;5014706;28;20506;-83
2021/10/11 10:57:59;;;;;;;17.92;11.25;;;;;;;;;;5014520;28;20042;-82
2021/10/11 11:00:28;;;;;;;16.88;10.00;;;;;;;;;;5013340;28;20045;-83
2021/10/11 11:02:54;;;;;;;16.00;11.05;;;;;;;;;;5012988;28;20042;-83
2021/10/11 11:05:24;;;;;;;16.13;11.18;;;;;;;;;;5012800;28;20072;-82
2021/10/11 11:07:52;;;;;;;15.00;10.07;;;;;;;;;;5013919;28;20042;-83
2021/10/11 11:10:20;;;;;;;12.68;8.35;;;;;;;;;;5014136;28;20048;-83
2021/10/11 11:12:54;;;;;;;15.07;9.20;;;;;;;;;;5013867;28;20046;-83
2021/10/11 11:15:39;;;;;;;15.32;9.48;;;;;;;;;;5013355;28;20049;-83
2021/10/11 11:18:11;;;;;;;13.40;9.63;;;;;;;;;;5012638;28;20073;-84
2021/10/11 11:20:39;;;;;;;15.38;9.23;;;;;;;;;;5013808;28;20049;-84
2021/10/11 11:23:07;;;;;;;15.98;8.50;;;;;;;;;;5014949;28;20478;-84
2021/10/11 11:25:37;;;;;;;14.48;9.50;;;;;;;;;;5014469;28;20516;-83
2021/10/11 11:28:07;;;;;;;15.05;8.80;;;;;;;;;;5014607;28;20048;-83
2021/10/11 11:30:36;;;;;;;12.90;8.50;;;;;;;;;;4997140;28;20049;-83
2021/10/11 11:33:06;;;;;;;15.02;8.50;;;;;;;;;;5014633;28;20049;-83
2021/10/11 11:35:35;;;;;;;14.25;9.27;;;;;;;;;;5014743;28;20042;-84
2021/10/11 11:38:05;;;;;;;11.90;8.32;;;;;;;;;;5014043;28;20050;-83
2021/10/11 11:40:33;;;;;;;13.95;8.98;;;;;;;;;;5014295;28;20394;-83
2021/10/11 11:43:05;;;;;;;11.77;6.97;;;;;;;;;;5014719;28;20046;-84
2021/10/11 11:45:41;;;;;;;10.77;6.97;;;;;;;;;;5014164;28;20049;-83
2021/10/11 11:48:10;;;;;;;10.27;6.88;;;;;;;;;;5014220;28;20050;-82
2021/10/11 11:50:37;;;;;;;12.45;6.93;;;;;;;;;;5014185;28;20100;-83
2021/10/11 11:53:08;;;;;;;9.65;6.70;;;;;;;;;;5014514;28;20482;-84
2021/10/11 11:55:35;;;;;;;11.13;7.47;;;;;;;;;;5014308;28;20047;-83
2021/10/11 11:58:02;;;;;;;10.85;7.20;;;;;;;;;;5014672;28;20042;-83
2021/10/11 12:00:31;;;;;;;10.88;7.05;;;;;;;;;;5014923;28;20046;-83
2021/10/11 12:03:01;;;;;;;10.27;6.78;;;;;;;;;;5014406;28;20161;-85
2021/10/11 12:05:29;;;;;;;14.35;7.43;;;;;;;;;;5014950;28;20045;-85
2021/10/11 12:07:56;;;;;;;10.32;6.55;;;;;;;;;;5014046;28;20430;-84
2021/10/11 12:10:25;;;;;;;10.52;6.63;;;;;;;;;;5015222;28;20069;-85
2021/10/11 12:12:59;;;;;;;11.25;7.60;;;;;;;;;;5018011;28;20038;-83
2021/10/11 12:15:30;;;;;;;14.02;7.15;;;;;;;;;;5017358;28;20507;-85
2021/10/11 12:18:08;;;;;;;10.45;6.63;;;;;;;;;;5017618;28;20130;-85
2021/10/11 12:20:46;;;;;;;9.95;6.85;;;;;;;;;;5017349;28;20668;-84
2021/10/11 12:23:14;;;;;;;13.73;7.25;;;;;;;;;;5017258;28;20437;-85
2021/10/11 12:25:41;;;;;;;15.15;7.25;;;;;;;;;;5017582;28;20045;-84
2021/10/11 12:28:10;;;;;;;10.90;6.97;;;;;;;;;;5017324;28;20037;-85
2021/10/11 12:30:37;;;;;;;13.55;7.80;;;;;;;;;;5016114;28;20398;-84
2021/10/11 12:33:11;;;;;;;11.68;7.00;;;;;;;;;;5017164;28;20050;-83
2021/10/11 12:35:38;;;;;;;12.73;7.65;;;;;;;;;;5017784;28;20490;-84
2021/10/11 12:38:06;;;;;;;12.48;6.93;;;;;;;;;;5018012;28;20049;-84
2021/10/11 12:40:33;;;;;;;13.68;7.15;;;;;;;;;;5017408;28;20042;-84
2021/10/11 12:43:00;;;;;;;10.27;7.82;;;;;;;;;;5016368;28;20283;-83
2021/10/11 12:45:27;;;;;;;10.20;7.53;;;;;;;;;;5016266;28;20456;-84
2021/10/11 12:48:03;;;;;;;10.95;7.47;;;;;;;;;;5017561;28;20042;-84
2021/10/11 12:50:33;;;;;;;14.13;8.57;;;;;;;;;;5018004;28;20041;-85
2021/10/11 12:53:01;;;;;;;12.82;7.60;;;;;;;;;;5017424;28;20053;-84
2021/10/11 12:55:27;;;;;;;12.93;7.45;;;;;;;;;;5017636;28;20068;-84
2021/10/11 12:58:04;;;;;;;10.35;6.32;;;;;;;;;;5018162;28;20053;-83
2021/10/11 13:00:32;;;;;;;10.35;7.45;;;;;;;;;;5016942;28;20494;-84
2021/10/11 13:02:58;;;;;;;11.95;7.32;;;;;;;;;;5018175;28;20049;-84
2021/10/11 13:05:25;;;;;;;12.50;7.97;;;;;;;;;;5017799;28;20481;-83
2021/10/11 13:07:54;;;;;;;12.80;8.13;;;;;;;;;;5016921;28;20384;-85
2021/10/11 13:10:21;;;;;;;12.02;7.65;;;;;;;;;;5018095;28;20478;-85
2021/10/11 13:12:48;;;;;;;14.00;7.40;;;;;;;;;;5016928;28;20045;-85
2021/10/11 13:15:16;;;;;;;11.68;7.20;;;;;;;;;;5017430;28;20073;-83
2021/10/11 13:17:43;;;;;;;12.07;7.05;;;;;;;;;;5017626;28;20488;-84
2021/10/11 13:20:11;;;;;;;11.68;7.15;;;;;;;;;;5017435;28;20050;-85
2021/10/11 13:22:38;;;;;;;18.08;8.98;;;;;;;;;;5000545;28;20140;-84
2021/10/11 13:25:09;;;;;;;9.77;6.43;;;;;;;;;;5016677;28;20045;-85
2021/10/11 13:27:36;;;;;;;9.88;6.25;;;;;;;;;;5018209;28;20054;-83
2021/10/11 14:28:05;;;;;;;11.13;6.40;;;;;;;;;;5018650;28;20049;-84
2021/10/11 14:30:43;;;;;;;11.45;5.97;;;;;;;;;;5019150;28;20475;-83
2021/10/11 15:58:17;;;;;;;8.32;5.32;;;;;;;;;;4998821;28;20833;-82
2021/10/11 16:00:57;;;;;;;7.00;4.80;;;;;;;;;;5012433;28;20041;-81
2021/10/11 16:03:33;;;;;;;10.35;4.85;;;;;;;;;;5013537;28;20436;-82
2021/10/11 16:05:59;;;;;;;8.77;4.38;;;;;;;;;;5014163;28;20049;-82
2021/10/11 16:08:28;;;;;;;8.23;4.18;;;;;;;;;;5015268;28;20053;-82
2021/10/11 16:10:55;;;;;;;7.30;4.50;;;;;;;;;;5014704;28;20038;-83
2021/10/11 16:13:22;;;;;;;7.55;4.30;;;;;;;;;;5016373;28;20096;-83
2021/10/11 16:15:50;;;;;;;8.02;4.47;;;;;;;;;;5015399;28;20042;-82
2021/10/11 16:18:17;;;;;;;7.50;4.45;;;;;;;;;;5014526;28;20041;-83
2021/10/11 16:20:44;;;;;;;24.33;4.47;;;;;;;;;;5015493;28;20104;-83
2021/10/11 16:23:11;;;;;;;7.88;4.07;;;;;;;;;;5014920;28;20049;-81
2021/10/11 16:25:40;;;;;;;7.50;3.65;;;;;;;;;;5014757;28;20098;-82
2021/10/11 16:28:07;;;;;;;5.90;4.30;;;;;;;;;;5016326;28;20046;-82
2021/10/11 16:30:34;;;;;;;9.50;4.63;;;;;;;;;;5014834;28;20038;-83
2021/10/11 16:33:04;;;;;;;8.45;5.47;;;;;;;;;;5015991;28;20707;-82
2021/10/11 16:35:31;;;;;;;9.65;5.57;;;;;;;;;;5016611;28;20126;-81
2021/10/11 16:37:58;;;;;;;9.93;5.57;;;;;;;;;;5014996;28;20060;-82
2021/10/11 16:40:25;;;;;;;8.48;5.00;;;;;;;;;;5015020;28;20049;-82
2021/10/11 16:42:52;;;;;;;8.45;4.93;;;;;;;;;;4996941;28;20129;-82
2021/10/11 16:45:19;;;;;;;6.72;4.40;;;;;;;;;;5015288;28;20038;-81
2021/10/11 16:47:49;;;;;;;8.73;5.78;;;;;;;;;;4997060;28;20045;-81
2021/10/11 16:50:16;;;;;;;12.18;8.25;;;;;;;;;;5015271;28;20522;-82
2021/10/11 16:52:42;;;;;;;10.95;7.25;;;;;;;;;;5014241;28;20088;-81